sensor_id;sensor_type;location;lat;lon;timestamp;P1;P2;P0
73623;PMS5003;61921;53.226;-1.296;2022-08-30T00:02:03;6;6;
73623;PMS5003;61921;53.226;-1.296;2022-08-30T00:04:28;7;7;
73623;PMS5003;61921;53.226;-1.296;2022-08-30T00:06:54;8;8;
73623;PMS5003;61921;53.226;-1.296;2022-08-30T00:09:19;7;7;
73623;PMS5003;61921;53.226;-1.296;2022-08-30T00:11:45;7;7;
73623;PMS5003;61921;53.226;-1.296;2022-08-30T00:14:09;8;7;
73623;PMS5003;61921;53.226;-1.296;2022-08-30T00:16:35;8;7;
73623;PMS5003;61921;53.226;-1.296;2022-08-30T00:19:00;8;8;
73623;PMS5003;61921;53.226;-1.296;2022-08-30T00:21:26;5;5;
73623;PMS5003;61921;53.226;-1.296;2022-08-30T00:23:51;7;7;
73623;PMS5003;61921;53.226;-1.296;2022-08-30T00:26:16;6;6;
73623;PMS5003;61921;53.226;-1.296;2022-08-30T00:28:41;7;5;
73623;PMS5003;61921;53.226;-1.296;2022-08-30T00:31:07;7;7;
73623;PMS5003;61921;53.226;-1.296;2022-08-30T00:33:32;10;10;
73623;PMS5003;61921;53.226;-1.296;2022-08-30T00:35:58;7;7;
73623;PMS5003;61921;53.226;-1.296;2022-08-30T00:38:23;10;5;
73623;PMS5003;61921;53.226;-1.296;2022-08-30T00:40:49;7;7;
73623;PMS5003;61921;53.226;-1.296;2022-08-30T00:43:16;7;6;
73623;PMS5003;61921;53.226;-1.296;2022-08-30T00:45:39;9;8;
73623;PMS5003;61921;53.226;-1.296;2022-08-30T00:48:04;8;7;
73623;PMS5003;61921;53.226;-1.296;2022-08-30T00:50:30;6;6;
73623;PMS5003;61921;53.226;-1.296;2022-08-30T00:52:56;7;7;
73623;PMS5003;61921;53.226;-1.296;2022-08-30T00:55:20;8;7;
73623;PMS5003;61921;53.226;-1.296;2022-08-30T00:57:46;6;6;
73623;PMS5003;61921;53.226;-1.296;2022-08-30T01:00:12;9;7;
73623;PMS5003;61921;53.226;-1.296;2022-08-30T01:02:36;8;5;
73623;PMS5003;61921;53.226;-1.296;2022-08-30T01:05:02;9;6;
73623;PMS5003;61921;53.226;-1.296;2022-08-30T01:07:27;5;5;
73623;PMS5003;61921;53.226;-1.296;2022-08-30T01:09:52;8;7;
73623;PMS5003;61921;53.226;-1.296;2022-08-30T01:12:18;8;6;
73623;PMS5003;61921;53.226;-1.296;2022-08-30T01:14:43;6;6;
73623;PMS5003;61921;53.226;-1.296;2022-08-30T01:17:08;9;8;
73623;PMS5003;61921;53.226;-1.296;2022-08-30T01:19:35;7;6;
73623;PMS5003;61921;53.226;-1.296;2022-08-30T01:22:00;7;7;
73623;PMS5003;61921;53.226;-1.296;2022-08-30T01:24:25;5;5;
73623;PMS5003;61921;53.226;-1.296;2022-08-30T01:26:50;8;8;
73623;PMS5003;61921;53.226;-1.296;2022-08-30T01:29:16;9;7;
73623;PMS5003;61921;53.226;-1.296;2022-08-30T01:31:40;6;6;
73623;PMS5003;61921;53.226;-1.296;2022-08-30T01:34:06;7;7;
73623;PMS5003;61921;53.226;-1.296;2022-08-30T01:36:31;6;5;
73623;PMS5003;61921;53.226;-1.296;2022-08-30T01:38:57;7;7;
73623;PMS5003;61921;53.226;-1.296;2022-08-30T01:41:23;5;5;
73623;PMS5003;61921;53.226;-1.296;2022-08-30T01:43:48;6;6;
73623;PMS5003;61921;53.226;-1.296;2022-08-30T01:46:14;5;5;
73623;PMS5003;61921;53.226;-1.296;2022-08-30T01:48:39;4;4;
73623;PMS5003;61921;53.226;-1.296;2022-08-30T01:51:04;5;5;
73623;PMS5003;61921;53.226;-1.296;2022-08-30T01:53:29;5;5;
73623;PMS5003;61921;53.226;-1.296;2022-08-30T01:55:54;3;3;
73623;PMS5003;61921;53.226;-1.296;2022-08-30T01:58:20;4;4;
73623;PMS5003;61921;53.226;-1.296;2022-08-30T02:00:45;3;3;
73623;PMS5003;61921;53.226;-1.296;2022-08-30T02:03:10;3;3;
73623;PMS5003;61921;53.226;-1.296;2022-08-30T02:05:36;4;3;
73623;PMS5003;61921;53.226;-1.296;2022-08-30T02:08:01;3;3;
73623;PMS5003;61921;53.226;-1.296;2022-08-30T02:10:26;5;4;
73623;PMS5003;61921;53.226;-1.296;2022-08-30T02:12:52;7;6;
73623;PMS5003;61921;53.226;-1.296;2022-08-30T02:15:17;4;4;
73623;PMS5003;61921;53.226;-1.296;2022-08-30T02:17:43;5;5;
73623;PMS5003;61921;53.226;-1.296;2022-08-30T02:20:08;6;6;
73623;PMS5003;61921;53.226;-1.296;2022-08-30T02:22:33;7;6;
73623;PMS5003;61921;53.226;-1.296;2022-08-30T02:24:59;12;10;
73623;PMS5003;61921;53.226;-1.296;2022-08-30T02:27:24;4;4;
73623;PMS5003;61921;53.226;-1.296;2022-08-30T02:29:49;10;8;
73623;PMS5003;61921;53.226;-1.296;2022-08-30T02:32:15;8;6;
73623;PMS5003;61921;53.226;-1.296;2022-08-30T02:34:40;6;6;
73623;PMS5003;61921;53.226;-1.296;2022-08-30T02:37:05;8;6;
73623;PMS5003;61921;53.226;-1.296;2022-08-30T02:39:31;9;7;
73623;PMS5003;61921;53.226;-1.296;2022-08-30T02:41:56;9;6;
73623;PMS5003;61921;53.226;-1.296;2022-08-30T02:44:22;8;8;
73623;PMS5003;61921;53.226;-1.296;2022-08-30T02:46:47;7;7;
73623;PMS5003;61921;53.226;-1.296;2022-08-30T02:49:13;7;6;
73623;PMS5003;61921;53.226;-1.296;2022-08-30T02:51:38;6;6;
73623;PMS5003;61921;53.226;-1.296;2022-08-30T02:54:03;7;7;
73623;PMS5003;61921;53.226;-1.296;2022-08-30T02:56:29;5;5;
73623;PMS5003;61921;53.226;-1.296;2022-08-30T02:58:55;6;6;
73623;PMS5003;61921;53.226;-1.296;2022-08-30T03:01:19;7;7;
73623;PMS5003;61921;53.226;-1.296;2022-08-30T03:03:45;5;5;
73623;PMS5003;61921;53.226;-1.296;2022-08-30T03:06:10;6;6;
73623;PMS5003;61921;53.226;-1.296;2022-08-30T03:08:35;5;5;
73623;PMS5003;61921;53.226;-1.296;2022-08-30T03:11:00;8;8;
73623;PMS5003;61921;53.226;-1.296;2022-08-30T03:13:26;4;4;
73623;PMS5003;61921;53.226;-1.296;2022-08-30T03:15:51;9;9;
73623;PMS5003;61921;53.226;-1.296;2022-08-30T03:18:16;11;10;
73623;PMS5003;61921;53.226;-1.296;2022-08-30T03:20:42;6;6;
73623;PMS5003;61921;53.226;-1.296;2022-08-30T03:23:07;5;5;
73623;PMS5003;61921;53.226;-1.296;2022-08-30T03:25:32;6;6;
73623;PMS5003;61921;53.226;-1.296;2022-08-30T03:27:58;7;6;
73623;PMS5003;61921;53.226;-1.296;2022-08-30T03:30:23;4;4;
73623;PMS5003;61921;53.226;-1.296;2022-08-30T03:32:49;5;5;
73623;PMS5003;61921;53.226;-1.296;2022-08-30T03:35:14;6;6;
73623;PMS5003;61921;53.226;-1.296;2022-08-30T03:37:39;8;8;
73623;PMS5003;61921;53.226;-1.296;2022-08-30T03:40:05;5;5;
73623;PMS5003;61921;53.226;-1.296;2022-08-30T03:42:29;5;5;
73623;PMS5003;61921;53.226;-1.296;2022-08-30T03:44:55;5;5;
73623;PMS5003;61921;53.226;-1.296;2022-08-30T03:47:20;4;4;
73623;PMS5003;61921;53.226;-1.296;2022-08-30T03:49:46;6;4;
73623;PMS5003;61921;53.226;-1.296;2022-08-30T03:52:11;6;4;
73623;PMS5003;61921;53.226;-1.296;2022-08-30T03:54:36;5;5;
73623;PMS5003;61921;53.226;-1.296;2022-08-30T03:57:02;7;7;
73623;PMS5003;61921;53.226;-1.296;2022-08-30T03:59:28;5;5;
73623;PMS5003;61921;53.226;-1.296;2022-08-30T04:01:53;4;4;
73623;PMS5003;61921;53.226;-1.296;2022-08-30T04:04:18;8;6;
73623;PMS5003;61921;53.226;-1.296;2022-08-30T04:06:44;5;5;
73623;PMS5003;61921;53.226;-1.296;2022-08-30T04:09:09;6;4;
73623;PMS5003;61921;53.226;-1.296;2022-08-30T04:11:34;6;6;
73623;PMS5003;61921;53.226;-1.296;2022-08-30T04:13:59;7;7;
73623;PMS5003;61921;53.226;-1.296;2022-08-30T04:16:25;4;4;
73623;PMS5003;61921;53.226;-1.296;2022-08-30T04:18:50;6;4;
73623;PMS5003;61921;53.226;-1.296;2022-08-30T04:21:15;5;5;
73623;PMS5003;61921;53.226;-1.296;2022-08-30T04:23:41;7;6;
73623;PMS5003;61921;53.226;-1.296;2022-08-30T04:26:07;6;6;
73623;PMS5003;61921;53.226;-1.296;2022-08-30T04:28:32;5;5;
73623;PMS5003;61921;53.226;-1.296;2022-08-30T04:30:57;5;5;
73623;PMS5003;61921;53.226;-1.296;2022-08-30T04:33:22;6;6;
73623;PMS5003;61921;53.226;-1.296;2022-08-30T04:35:48;3;3;
73623;PMS5003;61921;53.226;-1.296;2022-08-30T04:38:14;8;5;
73623;PMS5003;61921;53.226;-1.296;2022-08-30T04:40:39;5;5;
73623;PMS5003;61921;53.226;-1.296;2022-08-30T04:43:04;5;5;
73623;PMS5003;61921;53.226;-1.296;2022-08-30T04:45:30;4;4;
73623;PMS5003;61921;53.226;-1.296;2022-08-30T04:47:56;4;4;
73623;PMS5003;61921;53.226;-1.296;2022-08-30T04:50:20;6;6;
73623;PMS5003;61921;53.226;-1.296;2022-08-30T04:52:46;5;5;
73623;PMS5003;61921;53.226;-1.296;2022-08-30T04:55:11;4;4;
73623;PMS5003;61921;53.226;-1.296;2022-08-30T04:57:37;4;4;
73623;PMS5003;61921;53.226;-1.296;2022-08-30T05:00:03;4;4;
73623;PMS5003;61921;53.226;-1.296;2022-08-30T05:02:27;5;5;
73623;PMS5003;61921;53.226;-1.296;2022-08-30T05:04:53;6;6;
73623;PMS5003;61921;53.226;-1.296;2022-08-30T05:07:18;5;4;
73623;PMS5003;61921;53.226;-1.296;2022-08-30T05:09:43;4;4;
73623;PMS5003;61921;53.226;-1.296;2022-08-30T05:12:09;7;6;
73623;PMS5003;61921;53.226;-1.296;2022-08-30T05:14:34;6;6;
73623;PMS5003;61921;53.226;-1.296;2022-08-30T05:17:00;4;4;
73623;PMS5003;61921;53.226;-1.296;2022-08-30T05:19:25;6;4;
73623;PMS5003;61921;53.226;-1.296;2022-08-30T05:21:50;6;6;
73623;PMS5003;61921;53.226;-1.296;2022-08-30T05:24:16;4;4;
73623;PMS5003;61921;53.226;-1.296;2022-08-30T05:26:41;4;4;
73623;PMS5003;61921;53.226;-1.296;2022-08-30T05:29:07;5;5;
73623;PMS5003;61921;53.226;-1.296;2022-08-30T05:31:33;5;5;
73623;PMS5003;61921;53.226;-1.296;2022-08-30T05:33:58;7;6;
73623;PMS5003;61921;53.226;-1.296;2022-08-30T05:36:24;6;6;
73623;PMS5003;61921;53.226;-1.296;2022-08-30T05:38:49;5;5;
73623;PMS5003;61921;53.226;-1.296;2022-08-30T05:41:14;5;5;
73623;PMS5003;61921;53.226;-1.296;2022-08-30T05:43:39;6;6;
73623;PMS5003;61921;53.226;-1.296;2022-08-30T05:46:05;5;5;
73623;PMS5003;61921;53.226;-1.296;2022-08-30T05:48:30;7;6;
73623;PMS5003;61921;53.226;-1.296;2022-08-30T05:51:02;6;5;
73623;PMS5003;61921;53.226;-1.296;2022-08-30T05:53:21;6;6;
73623;PMS5003;61921;53.226;-1.296;2022-08-30T05:55:47;6;6;
73623;PMS5003;61921;53.226;-1.296;2022-08-30T05:58:12;7;7;
73623;PMS5003;61921;53.226;-1.296;2022-08-30T06:00:37;8;8;
73623;PMS5003;61921;53.226;-1.296;2022-08-30T06:03:03;8;7;
73623;PMS5003;61921;53.226;-1.296;2022-08-30T06:05:28;7;6;
73623;PMS5003;61921;53.226;-1.296;2022-08-30T06:07:54;10;7;
73623;PMS5003;61921;53.226;-1.296;2022-08-30T06:10:19;10;8;
73623;PMS5003;61921;53.226;-1.296;2022-08-30T06:12:45;11;8;
73623;PMS5003;61921;53.226;-1.296;2022-08-30T06:15:10;11;9;
73623;PMS5003;61921;53.226;-1.296;2022-08-30T06:17:35;8;8;
73623;PMS5003;61921;53.226;-1.296;2022-08-30T06:20:00;8;8;
73623;PMS5003;61921;53.226;-1.296;2022-08-30T06:22:26;9;6;
73623;PMS5003;61921;53.226;-1.296;2022-08-30T06:24:51;7;7;
73623;PMS5003;61921;53.226;-1.296;2022-08-30T06:27:16;10;9;
73623;PMS5003;61921;53.226;-1.296;2022-08-30T06:29:42;8;8;
73623;PMS5003;61921;53.226;-1.296;2022-08-30T06:32:07;11;10;
73623;PMS5003;61921;53.226;-1.296;2022-08-30T06:34:33;8;8;
73623;PMS5003;61921;53.226;-1.296;2022-08-30T06:36:58;7;7;
73623;PMS5003;61921;53.226;-1.296;2022-08-30T06:39:23;7;7;
73623;PMS5003;61921;53.226;-1.296;2022-08-30T06:41:49;15;14;
73623;PMS5003;61921;53.226;-1.296;2022-08-30T06:44:15;7;7;
73623;PMS5003;61921;53.226;-1.296;2022-08-30T06:46:40;12;9;
73623;PMS5003;61921;53.226;-1.296;2022-08-30T06:49:06;8;8;
73623;PMS5003;61921;53.226;-1.296;2022-08-30T06:51:31;8;8;
73623;PMS5003;61921;53.226;-1.296;2022-08-30T06:53:56;9;9;
73623;PMS5003;61921;53.226;-1.296;2022-08-30T06:56:22;9;9;
73623;PMS5003;61921;53.226;-1.296;2022-08-30T06:58:47;8;8;
73623;PMS5003;61921;53.226;-1.296;2022-08-30T07:01:13;10;8;
73623;PMS5003;61921;53.226;-1.296;2022-08-30T07:03:38;7;7;
73623;PMS5003;61921;53.226;-1.296;2022-08-30T07:06:03;9;6;
73623;PMS5003;61921;53.226;-1.296;2022-08-30T07:08:28;10;7;
73623;PMS5003;61921;53.226;-1.296;2022-08-30T07:10:54;8;8;
73623;PMS5003;61921;53.226;-1.296;2022-08-30T07:13:19;9;8;
73623;PMS5003;61921;53.226;-1.296;2022-08-30T07:15:45;8;8;
73623;PMS5003;61921;53.226;-1.296;2022-08-30T07:18:10;10;7;
73623;PMS5003;61921;53.226;-1.296;2022-08-30T07:20:36;9;8;
73623;PMS5003;61921;53.226;-1.296;2022-08-30T07:23:01;5;4;
73623;PMS5003;61921;53.226;-1.296;2022-08-30T07:25:26;7;6;
73623;PMS5003;61921;53.226;-1.296;2022-08-30T07:27:51;5;5;
73623;PMS5003;61921;53.226;-1.296;2022-08-30T07:30:17;6;6;
73623;PMS5003;61921;53.226;-1.296;2022-08-30T07:32:42;8;8;
73623;PMS5003;61921;53.226;-1.296;2022-08-30T07:35:07;6;5;
73623;PMS5003;61921;53.226;-1.296;2022-08-30T07:37:33;9;7;
73623;PMS5003;61921;53.226;-1.296;2022-08-30T07:39:58;6;6;
73623;PMS5003;61921;53.226;-1.296;2022-08-30T07:42:23;7;6;
73623;PMS5003;61921;53.226;-1.296;2022-08-30T07:44:50;4;4;
73623;PMS5003;61921;53.226;-1.296;2022-08-30T07:47:14;6;4;
73623;PMS5003;61921;53.226;-1.296;2022-08-30T07:49:40;5;4;
73623;PMS5003;61921;53.226;-1.296;2022-08-30T07:52:06;7;5;
73623;PMS5003;61921;53.226;-1.296;2022-08-30T07:54:31;5;4;
73623;PMS5003;61921;53.226;-1.296;2022-08-30T07:56:56;4;4;
73623;PMS5003;61921;53.226;-1.296;2022-08-30T07:59:22;6;6;
73623;PMS5003;61921;53.226;-1.296;2022-08-30T08:01:47;3;3;
73623;PMS5003;61921;53.226;-1.296;2022-08-30T08:04:12;5;4;
73623;PMS5003;61921;53.226;-1.296;2022-08-30T08:06:38;6;5;
73623;PMS5003;61921;53.226;-1.296;2022-08-30T08:09:03;8;4;
73623;PMS5003;61921;53.226;-1.296;2022-08-30T08:11:28;4;4;
73623;PMS5003;61921;53.226;-1.296;2022-08-30T08:13:53;7;5;
73623;PMS5003;61921;53.226;-1.296;2022-08-30T08:16:19;3;3;
73623;PMS5003;61921;53.226;-1.296;2022-08-30T08:18:44;2;2;
73623;PMS5003;61921;53.226;-1.296;2022-08-30T08:21:09;2;2;
73623;PMS5003;61921;53.226;-1.296;2022-08-30T08:23:34;3;3;
73623;PMS5003;61921;53.226;-1.296;2022-08-30T08:25:59;3;3;
73623;PMS5003;61921;53.226;-1.296;2022-08-30T08:28:25;5;5;
73623;PMS5003;61921;53.226;-1.296;2022-08-30T08:30:50;2;2;
73623;PMS5003;61921;53.226;-1.296;2022-08-30T08:33:15;3;3;
73623;PMS5003;61921;53.226;-1.296;2022-08-30T08:35:41;2;2;
73623;PMS5003;61921;53.226;-1.296;2022-08-30T08:38:06;1;1;
73623;PMS5003;61921;53.226;-1.296;2022-08-30T08:40:33;3;2;
73623;PMS5003;61921;53.226;-1.296;2022-08-30T08:42:58;3;3;
73623;PMS5003;61921;53.226;-1.296;2022-08-30T08:45:23;4;4;
73623;PMS5003;61921;53.226;-1.296;2022-08-30T08:47:48;5;3;
73623;PMS5003;61921;53.226;-1.296;2022-08-30T08:50:13;3;2;
73623;PMS5003;61921;53.226;-1.296;2022-08-30T08:52:42;1;1;
73623;PMS5003;61921;53.226;-1.296;2022-08-30T08:55:06;2;2;
73623;PMS5003;61921;53.226;-1.296;2022-08-30T08:57:30;3;2;
73623;PMS5003;61921;53.226;-1.296;2022-08-30T08:59:53;2;2;
73623;PMS5003;61921;53.226;-1.296;2022-08-30T09:02:21;3;3;
73623;PMS5003;61921;53.226;-1.296;2022-08-30T09:04:43;3;2;
73623;PMS5003;61921;53.226;-1.296;2022-08-30T09:07:10;3;3;
73623;PMS5003;61921;53.226;-1.296;2022-08-30T09:09:34;4;1;
73623;PMS5003;61921;53.226;-1.296;2022-08-30T09:11:59;1;1;
73623;PMS5003;61921;53.226;-1.296;2022-08-30T09:14:25;2;2;
73623;PMS5003;61921;53.226;-1.296;2022-08-30T09:16:51;1;1;
73623;PMS5003;61921;53.226;-1.296;2022-08-30T09:21:39;3;3;
73623;PMS5003;61921;53.226;-1.296;2022-08-30T09:24:04;2;2;
73623;PMS5003;61921;53.226;-1.296;2022-08-30T09:26:31;3;3;
73623;PMS5003;61921;53.226;-1.296;2022-08-30T09:28:55;3;2;
73623;PMS5003;61921;53.226;-1.296;2022-08-30T09:31:21;2;2;
73623;PMS5003;61921;53.226;-1.296;2022-08-30T09:36:13;2;2;
73623;PMS5003;61921;53.226;-1.296;2022-08-30T09:38:35;2;2;
73623;PMS5003;61921;53.226;-1.296;2022-08-30T09:41:01;3;3;
73623;PMS5003;61921;53.226;-1.296;2022-08-30T09:43:26;2;2;
73623;PMS5003;61921;53.226;-1.296;2022-08-30T09:48:20;3;3;
73623;PMS5003;61921;53.226;-1.296;2022-08-30T09:50:41;2;2;
73623;PMS5003;61921;53.226;-1.296;2022-08-30T09:53:08;4;1;
73623;PMS5003;61921;53.226;-1.296;2022-08-30T09:55:36;4;3;
73623;PMS5003;61921;53.226;-1.296;2022-08-30T09:58:02;6;4;
73623;PMS5003;61921;53.226;-1.296;2022-08-30T10:00:23;3;3;
73623;PMS5003;61921;53.226;-1.296;2022-08-30T10:02:53;3;3;
73623;PMS5003;61921;53.226;-1.296;2022-08-30T10:05:15;3;3;
73623;PMS5003;61921;53.226;-1.296;2022-08-30T10:07:41;3;3;
73623;PMS5003;61921;53.226;-1.296;2022-08-30T10:10:05;3;3;
73623;PMS5003;61921;53.226;-1.296;2022-08-30T10:12:29;4;4;
73623;PMS5003;61921;53.226;-1.296;2022-08-30T10:14:56;5;3;
73623;PMS5003;61921;53.226;-1.296;2022-08-30T10:17:23;2;2;
73623;PMS5003;61921;53.226;-1.296;2022-08-30T10:19:49;4;4;
73623;PMS5003;61921;53.226;-1.296;2022-08-30T10:22:10;2;2;
73623;PMS5003;61921;53.226;-1.296;2022-08-30T10:24:35;2;2;
73623;PMS5003;61921;53.226;-1.296;2022-08-30T10:27:01;5;3;
73623;PMS5003;61921;53.226;-1.296;2022-08-30T10:29:27;5;4;
73623;PMS5003;61921;53.226;-1.296;2022-08-30T10:31:51;3;3;
73623;PMS5003;61921;53.226;-1.296;2022-08-30T10:34:15;2;2;
73623;PMS5003;61921;53.226;-1.296;2022-08-30T10:36:41;5;4;
73623;PMS5003;61921;53.226;-1.296;2022-08-30T10:39:05;3;2;
73623;PMS5003;61921;53.226;-1.296;2022-08-30T10:41:33;1;1;
73623;PMS5003;61921;53.226;-1.296;2022-08-30T10:43:56;3;3;
73623;PMS5003;61921;53.226;-1.296;2022-08-30T10:46:23;3;3;
73623;PMS5003;61921;53.226;-1.296;2022-08-30T10:48:45;5;3;
73623;PMS5003;61921;53.226;-1.296;2022-08-30T10:51:13;3;3;
73623;PMS5003;61921;53.226;-1.296;2022-08-30T10:53:38;2;2;
73623;PMS5003;61921;53.226;-1.296;2022-08-30T10:56:01;3;3;
73623;PMS5003;61921;53.226;-1.296;2022-08-30T10:58:26;4;4;
73623;PMS5003;61921;53.226;-1.296;2022-08-30T11:00:54;3;2;
73623;PMS5003;61921;53.226;-1.296;2022-08-30T11:05:44;2;2;
73623;PMS5003;61921;53.226;-1.296;2022-08-30T11:08:07;2;2;
73623;PMS5003;61921;53.226;-1.296;2022-08-30T11:10:35;2;2;
73623;PMS5003;61921;53.226;-1.296;2022-08-30T11:12:58;3;3;
73623;PMS5003;61921;53.226;-1.296;2022-08-30T11:15:23;4;4;
73623;PMS5003;61921;53.226;-1.296;2022-08-30T11:22:37;5;5;
73623;PMS5003;61921;53.226;-1.296;2022-08-30T11:25:05;4;4;
73623;PMS5003;61921;53.226;-1.296;2022-08-30T11:29:52;3;3;
73623;PMS5003;61921;53.226;-1.296;2022-08-30T11:32:19;4;3;
73623;PMS5003;61921;53.226;-1.296;2022-08-30T11:37:07;4;4;
73623;PMS5003;61921;53.226;-1.296;2022-08-30T11:44:27;4;4;
73623;PMS5003;61921;53.226;-1.296;2022-08-30T11:46:49;4;4;
73623;PMS5003;61921;53.226;-1.296;2022-08-30T11:51:43;3;3;
73623;PMS5003;61921;53.226;-1.296;2022-08-30T11:54:06;7;5;
73623;PMS5003;61921;53.226;-1.296;2022-08-30T11:56:30;5;5;
73623;PMS5003;61921;53.226;-1.296;2022-08-30T11:58:54;5;5;
73623;PMS5003;61921;53.226;-1.296;2022-08-30T12:01:20;7;5;
73623;PMS5003;61921;53.226;-1.296;2022-08-30T12:03:44;6;6;
73623;PMS5003;61921;53.226;-1.296;2022-08-30T12:06:10;8;7;
73623;PMS5003;61921;53.226;-1.296;2022-08-30T12:08:41;5;5;
73623;PMS5003;61921;53.226;-1.296;2022-08-30T12:11:00;5;5;
73623;PMS5003;61921;53.226;-1.296;2022-08-30T12:15:50;9;7;
73623;PMS5003;61921;53.226;-1.296;2022-08-30T12:18:17;9;7;
73623;PMS5003;61921;53.226;-1.296;2022-08-30T12:20:40;7;5;
73623;PMS5003;61921;53.226;-1.296;2022-08-30T12:23:12;6;5;
73623;PMS5003;61921;53.226;-1.296;2022-08-30T12:25:31;3;3;
73623;PMS5003;61921;53.226;-1.296;2022-08-30T12:30:24;8;7;
73623;PMS5003;61921;53.226;-1.296;2022-08-30T12:32:46;6;5;
73623;PMS5003;61921;53.226;-1.296;2022-08-30T12:37:36;8;8;
73623;PMS5003;61921;53.226;-1.296;2022-08-30T12:40:02;9;8;
73623;PMS5003;61921;53.226;-1.296;2022-08-30T12:42:27;10;8;
73623;PMS5003;61921;53.226;-1.296;2022-08-30T12:44:52;8;7;
73623;PMS5003;61921;53.226;-1.296;2022-08-30T12:47:17;8;7;
73623;PMS5003;61921;53.226;-1.296;2022-08-30T12:49:41;9;9;
73623;PMS5003;61921;53.226;-1.296;2022-08-30T12:52:15;7;7;
73623;PMS5003;61921;53.226;-1.296;2022-08-30T12:54:31;9;7;
73623;PMS5003;61921;53.226;-1.296;2022-08-30T12:56:58;5;5;
73623;PMS5003;61921;53.226;-1.296;2022-08-30T13:01:47;7;7;
73623;PMS5003;61921;53.226;-1.296;2022-08-30T13:04:14;5;5;
73623;PMS5003;61921;53.226;-1.296;2022-08-30T13:06:38;5;5;
73623;PMS5003;61921;53.226;-1.296;2022-08-30T13:09:02;7;5;
73623;PMS5003;61921;53.226;-1.296;2022-08-30T13:11:27;5;5;
73623;PMS5003;61921;53.226;-1.296;2022-08-30T13:13:53;4;4;
73623;PMS5003;61921;53.226;-1.296;2022-08-30T13:16:22;4;4;
73623;PMS5003;61921;53.226;-1.296;2022-08-30T13:18:42;5;5;
73623;PMS5003;61921;53.226;-1.296;2022-08-30T13:21:08;7;4;
73623;PMS5003;61921;53.226;-1.296;2022-08-30T13:23:33;6;5;
73623;PMS5003;61921;53.226;-1.296;2022-08-30T13:25:58;6;6;
73623;PMS5003;61921;53.226;-1.296;2022-08-30T13:28:23;7;7;
73623;PMS5003;61921;53.226;-1.296;2022-08-30T13:30:48;8;7;
73623;PMS5003;61921;53.226;-1.296;2022-08-30T13:33:13;7;7;
73623;PMS5003;61921;53.226;-1.296;2022-08-30T13:35:38;6;6;
73623;PMS5003;61921;53.226;-1.296;2022-08-30T13:38:04;6;6;
73623;PMS5003;61921;53.226;-1.296;2022-08-30T13:40:29;6;6;
73623;PMS5003;61921;53.226;-1.296;2022-08-30T13:42:54;5;5;
73623;PMS5003;61921;53.226;-1.296;2022-08-30T13:45:19;7;6;
73623;PMS5003;61921;53.226;-1.296;2022-08-30T13:47:44;5;5;
73623;PMS5003;61921;53.226;-1.296;2022-08-30T13:50:09;4;3;
73623;PMS5003;61921;53.226;-1.296;2022-08-30T13:52:34;5;5;
73623;PMS5003;61921;53.226;-1.296;2022-08-30T13:54:59;6;6;
73623;PMS5003;61921;53.226;-1.296;2022-08-30T13:57:25;7;7;
73623;PMS5003;61921;53.226;-1.296;2022-08-30T13:59:49;6;6;
73623;PMS5003;61921;53.226;-1.296;2022-08-30T14:02:15;7;7;
73623;PMS5003;61921;53.226;-1.296;2022-08-30T14:04:40;10;10;
73623;PMS5003;61921;53.226;-1.296;2022-08-30T14:07:05;8;8;
73623;PMS5003;61921;53.226;-1.296;2022-08-30T14:09:30;7;7;
73623;PMS5003;61921;53.226;-1.296;2022-08-30T14:11:55;9;8;
73623;PMS5003;61921;53.226;-1.296;2022-08-30T14:14:20;7;6;
73623;PMS5003;61921;53.226;-1.296;2022-08-30T14:16:45;10;8;
73623;PMS5003;61921;53.226;-1.296;2022-08-30T14:19:10;6;6;
73623;PMS5003;61921;53.226;-1.296;2022-08-30T14:21:35;9;7;
73623;PMS5003;61921;53.226;-1.296;2022-08-30T14:24:01;5;5;
73623;PMS5003;61921;53.226;-1.296;2022-08-30T14:26:27;6;6;
73623;PMS5003;61921;53.226;-1.296;2022-08-30T14:28:51;6;5;
73623;PMS5003;61921;53.226;-1.296;2022-08-30T14:31:15;6;5;
73623;PMS5003;61921;53.226;-1.296;2022-08-30T14:33:41;7;6;
73623;PMS5003;61921;53.226;-1.296;2022-08-30T14:36:06;4;4;
73623;PMS5003;61921;53.226;-1.296;2022-08-30T14:38:31;6;6;
73623;PMS5003;61921;53.226;-1.296;2022-08-30T14:40:56;7;7;
73623;PMS5003;61921;53.226;-1.296;2022-08-30T14:43:21;8;8;
73623;PMS5003;61921;53.226;-1.296;2022-08-30T14:45:46;9;9;
73623;PMS5003;61921;53.226;-1.296;2022-08-30T14:48:11;8;8;
73623;PMS5003;61921;53.226;-1.296;2022-08-30T14:50:36;10;10;
73623;PMS5003;61921;53.226;-1.296;2022-08-30T14:53:02;10;9;
73623;PMS5003;61921;53.226;-1.296;2022-08-30T14:55:26;10;9;
73623;PMS5003;61921;53.226;-1.296;2022-08-30T14:57:52;13;10;
73623;PMS5003;61921;53.226;-1.296;2022-08-30T15:00:17;8;8;
73623;PMS5003;61921;53.226;-1.296;2022-08-30T15:02:42;8;7;
73623;PMS5003;61921;53.226;-1.296;2022-08-30T15:05:07;9;6;
73623;PMS5003;61921;53.226;-1.296;2022-08-30T15:07:32;6;6;
73623;PMS5003;61921;53.226;-1.296;2022-08-30T15:09:58;7;7;
73623;PMS5003;61921;53.226;-1.296;2022-08-30T15:12:23;9;9;
73623;PMS5003;61921;53.226;-1.296;2022-08-30T15:14:48;13;13;
73623;PMS5003;61921;53.226;-1.296;2022-08-30T15:17:14;12;10;
73623;PMS5003;61921;53.226;-1.296;2022-08-30T15:19:39;11;8;
73623;PMS5003;61921;53.226;-1.296;2022-08-30T15:22:04;10;10;
73623;PMS5003;61921;53.226;-1.296;2022-08-30T15:24:29;8;8;
73623;PMS5003;61921;53.226;-1.296;2022-08-30T15:26:55;10;8;
73623;PMS5003;61921;53.226;-1.296;2022-08-30T15:29:20;7;7;
73623;PMS5003;61921;53.226;-1.296;2022-08-30T15:31:45;8;8;
73623;PMS5003;61921;53.226;-1.296;2022-08-30T15:34:11;9;7;
73623;PMS5003;61921;53.226;-1.296;2022-08-30T15:36:36;6;6;
73623;PMS5003;61921;53.226;-1.296;2022-08-30T15:39:00;7;7;
73623;PMS5003;61921;53.226;-1.296;2022-08-30T15:41:26;5;5;
73623;PMS5003;61921;53.226;-1.296;2022-08-30T15:43:50;7;7;
73623;PMS5003;61921;53.226;-1.296;2022-08-30T15:46:17;11;7;
73623;PMS5003;61921;53.226;-1.296;2022-08-30T15:48:40;6;6;
73623;PMS5003;61921;53.226;-1.296;2022-08-30T15:51:06;5;5;
73623;PMS5003;61921;53.226;-1.296;2022-08-30T15:53:31;9;7;
73623;PMS5003;61921;53.226;-1.296;2022-08-30T15:55:56;8;8;
73623;PMS5003;61921;53.226;-1.296;2022-08-30T15:58:21;7;7;
73623;PMS5003;61921;53.226;-1.296;2022-08-30T16:00:46;6;6;
73623;PMS5003;61921;53.226;-1.296;2022-08-30T16:03:12;6;6;
73623;PMS5003;61921;53.226;-1.296;2022-08-30T16:05:37;6;6;
73623;PMS5003;61921;53.226;-1.296;2022-08-30T16:08:02;4;4;
73623;PMS5003;61921;53.226;-1.296;2022-08-30T16:10:27;5;5;
73623;PMS5003;61921;53.226;-1.296;2022-08-30T16:12:52;6;6;
73623;PMS5003;61921;53.226;-1.296;2022-08-30T16:15:17;6;6;
73623;PMS5003;61921;53.226;-1.296;2022-08-30T16:17:42;6;6;
73623;PMS5003;61921;53.226;-1.296;2022-08-30T16:20:08;9;8;
73623;PMS5003;61921;53.226;-1.296;2022-08-30T16:22:33;7;6;
73623;PMS5003;61921;53.226;-1.296;2022-08-30T16:24:58;7;7;
73623;PMS5003;61921;53.226;-1.296;2022-08-30T16:27:23;7;7;
73623;PMS5003;61921;53.226;-1.296;2022-08-30T16:29:48;7;7;
73623;PMS5003;61921;53.226;-1.296;2022-08-30T16:32:13;8;7;
73623;PMS5003;61921;53.226;-1.296;2022-08-30T16:34:39;6;6;
73623;PMS5003;61921;53.226;-1.296;2022-08-30T16:37:04;6;6;
73623;PMS5003;61921;53.226;-1.296;2022-08-30T16:39:29;8;7;
73623;PMS5003;61921;53.226;-1.296;2022-08-30T16:41:54;6;4;
73623;PMS5003;61921;53.226;-1.296;2022-08-30T16:44:19;6;6;
73623;PMS5003;61921;53.226;-1.296;2022-08-30T16:46:44;6;6;
73623;PMS5003;61921;53.226;-1.296;2022-08-30T16:49:09;5;5;
73623;PMS5003;61921;53.226;-1.296;2022-08-30T16:51:35;5;5;
73623;PMS5003;61921;53.226;-1.296;2022-08-30T16:54:00;4;3;
73623;PMS5003;61921;53.226;-1.296;2022-08-30T16:56:26;6;6;